Kongsberg, North Dakota
Current Conditions -  °F | °C
As of 1:54 PM on Wednesday 17 Dec 2014 (Local Time) from KMOT Reporting Station
Scattered Clouds Scattered Clouds  
Wind Chill:   Ceiling: Unl
Heat Index: 17°   Visibility: 9mi
Dew Point: 10°   Wind: 10mph
Humidity: 74%   Direction: 130°SE
Pressure: 30.2"   Gusts: NA
Location:  47.9335°N, 100.777°W
Report Text: KMOT 171954Z 13009KT 9SM SCT012 M08/M12 A3020 RMK AO2 SLP262 T10831122
Loading
Personal Weather Stations






























Interactive Weather Map New forecast layout! Learn more

10-Day Weather Forecast

Advertisements
Track Severe Weather on mobile